^^
Lisbon, NH - Weather Station Historical Data
 
Daily Summary for October 21, 2021 Units:  English    Metric   Both
Daily Weekly Monthly Yearly
  Current: High: Low: Average:
Temperature: 55.1 °F 58.6 °F 42.7 °F 50.6 °F
Dew Point: 55.1 °F 58.6 °F 42.7 °F 50.3 °F
Humidity: 100% 100% 86.3% 99%
Wind Speed: 0.4mph 2.4mph 0mph 0.2mph
Wind Gust: 2mph 5mph - -
WindENE - - ESE
Pressure: 29.78 in 29.95 in 29.78 in -
Precipitation: 0.10 in      
 
 
Tabular Data for October 21, 2021
Time Temperature Dew Point Pressure Wind Wind Speed Wind Gust Humidity Rainfall Rate (Hourly) solar
00:04 47 °F 47 °F 29.91 in Calm     100% 0.00 in 0 W/m2
00:09 46.8 °F 46.8 °F 29.91 in Calm     100% 0.00 in 0 W/m2
00:14 46.8 °F 46.8 °F 29.91 in Calm     100% 0.00 in 0 W/m2
00:19 46.6 °F 46.6 °F 29.91 in Calm     100% 0.00 in 0 W/m2
00:24 46.5 °F 46.5 °F 29.91 in Calm     100% 0.00 in 0 W/m2
00:29 46.4 °F 46.4 °F 29.91 in Calm     100% 0.00 in 0 W/m2
00:34 46.4 °F 46.4 °F 29.91 in Calm     100% 0.00 in 0 W/m2
00:39 46.4 °F 46.4 °F 29.91 in Calm     100% 0.00 in 0 W/m2
00:44 46.5 °F 46.5 °F 29.92 in Calm     100% 0.00 in 0 W/m2
00:49 46.5 °F 46.5 °F 29.92 in Calm     100% 0.00 in 0 W/m2
00:54 46.5 °F 46.5 °F 29.92 in Calm     100% 0.00 in 0 W/m2
00:59 46.5 °F 46.5 °F 29.92 in Calm     100% 0.00 in 0 W/m2
01:04 46.5 °F 46.5 °F 29.92 in Calm     100% 0.00 in 0 W/m2
01:09 46.5 °F 46.5 °F 29.92 in Calm     100% 0.00 in 0 W/m2
01:14 46.5 °F 46.5 °F 29.92 in Calm     100% 0.00 in 0 W/m2
01:19 46.5 °F 46.5 °F 29.91 in Calm     100% 0.00 in 0 W/m2
01:24 46.4 °F 46.4 °F 29.91 in Calm     100% 0.00 in 0 W/m2
01:29 46.3 °F 46.3 °F 29.91 in Calm     100% 0.00 in 0 W/m2
01:34 46.2 °F 46.2 °F 29.91 in Calm     100% 0.00 in 0 W/m2
01:39 46 °F 46 °F 29.91 in Calm     100% 0.00 in 0 W/m2
01:44 45.9 °F 45.9 °F 29.91 in Calm     100% 0.00 in 0 W/m2
01:49 45.8 °F 45.8 °F 29.91 in Calm     100% 0.00 in 0 W/m2
01:54 45.7 °F 45.7 °F 29.91 in Calm     100% 0.00 in 0 W/m2
01:59 45.5 °F 45.5 °F 29.91 in Calm     100% 0.00 in 0 W/m2
02:04 45.4 °F 45.4 °F 29.91 in Calm     100% 0.00 in 0 W/m2
02:09 45.3 °F 45.3 °F 29.91 in Calm     100% 0.00 in 0 W/m2
02:14 45.1 °F 45.1 °F 29.91 in Calm     100% 0.00 in 0 W/m2
02:19 45 °F 45 °F 29.91 in Calm     100% 0.00 in 0 W/m2
02:24 44.9 °F 44.9 °F 29.91 in Calm     100% 0.00 in 0 W/m2
02:29 44.8 °F 44.8 °F 29.91 in Calm     100% 0.00 in 0 W/m2
02:34 44.8 °F 44.8 °F 29.91 in Calm     100% 0.00 in 0 W/m2
02:39 44.7 °F 44.7 °F 29.91 in Calm     100% 0.00 in 0 W/m2
02:44 44.6 °F 44.6 °F 29.91 in Calm     100% 0.00 in 0 W/m2
02:49 44.5 °F 44.5 °F 29.91 in Calm     100% 0.00 in 0 W/m2
02:54 44.5 °F 44.5 °F 29.91 in Calm     100% 0.00 in 0 W/m2
02:59 44.3 °F 44.3 °F 29.91 in Calm     100% 0.00 in 0 W/m2
03:04 44.2 °F 44.2 °F 29.91 in Calm     100% 0.00 in 0 W/m2
03:09 44.1 °F 44.1 °F 29.91 in Calm     100% 0.00 in 0 W/m2
03:14 43.9 °F 43.9 °F 29.92 in Calm     100% 0.00 in 0 W/m2
03:19 43.9 °F 43.9 °F 29.92 in Calm     100% 0.00 in 0 W/m2
03:24 43.8 °F 43.8 °F 29.92 in Calm     100% 0.00 in 0 W/m2
03:29 43.8 °F 43.8 °F 29.92 in Calm     100% 0.00 in 0 W/m2
03:34 43.8 °F 43.8 °F 29.92 in Calm     100% 0.00 in 0 W/m2
03:39 43.8 °F 43.8 °F 29.92 in Calm     100% 0.00 in 0 W/m2
03:44 43.8 °F 43.8 °F 29.92 in Calm     100% 0.00 in 0 W/m2
03:49 43.8 °F 43.8 °F 29.92 in Calm     100% 0.00 in 0 W/m2
03:54 43.8 °F 43.8 °F 29.92 in Calm     100% 0.00 in 0 W/m2
03:59 43.7 °F 43.7 °F 29.92 in Calm     100% 0.00 in 0 W/m2
04:04 43.6 °F 43.6 °F 29.92 in Calm     100% 0.00 in 0 W/m2
04:09 43.5 °F 43.5 °F 29.92 in Calm     100% 0.00 in 0 W/m2
04:14 43.4 °F 43.4 °F 29.92 in Calm     100% 0.00 in 0 W/m2
04:19 43.3 °F 43.3 °F 29.92 in Calm     100% 0.00 in 0 W/m2
04:24 43.2 °F 43.2 °F 29.92 in Calm     100% 0.00 in 0 W/m2
04:29 43.1 °F 43.1 °F 29.92 in Calm     100% 0.00 in 0 W/m2
04:34 43.1 °F 43.1 °F 29.92 in Calm     100% 0.00 in 0 W/m2
04:39 43.1 °F 43.1 °F 29.92 in Calm     100% 0.00 in 0 W/m2
04:44 43.1 °F 43.1 °F 29.92 in Calm     100% 0.00 in 0 W/m2
04:49 43.1 °F 43.1 °F 29.92 in Calm     100% 0.00 in 0 W/m2
04:54 43.1 °F 43.1 °F 29.92 in Calm     100% 0.00 in 0 W/m2
04:59 43.1 °F 43.1 °F 29.92 in Calm     100% 0.00 in 0 W/m2
05:04 43.2 °F 43.2 °F 29.92 in Calm     100% 0.00 in 0 W/m2
05:09 43.2 °F 43.2 °F 29.92 in Calm     100% 0.00 in 0 W/m2
05:14 43.2 °F 43.2 °F 29.92 in Calm     100% 0.00 in 0 W/m2
05:19 43.2 °F 43.2 °F 29.92 in Calm     100% 0.00 in 0 W/m2
05:24 43.2 °F 43.2 °F 29.92 in NNE 0.1 mph 1 mph 100% 0.00 in 0 W/m2
05:29 43.3 °F 43.3 °F 29.92 in ENE 1.2 mph 2 mph 100% 0.00 in 0 W/m2
05:34 43.3 °F 43.3 °F 29.92 in ENE 0.8 mph 2 mph 100% 0.00 in 0 W/m2
05:39 43.3 °F 43.3 °F 29.92 in ENE 0.3 mph 2 mph 100% 0.00 in 0 W/m2
05:44 43.2 °F 43.2 °F 29.92 in Calm   1 mph 100% 0.00 in 0 W/m2
05:49 43.1 °F 43.1 °F 29.92 in ENE 0.1 mph 1 mph 100% 0.00 in 0 W/m2
05:54 43.1 °F 43.1 °F 29.92 in NE 0.7 mph 2 mph 100% 0.00 in 0 W/m2
05:59 43.1 °F 43.1 °F 29.93 in NE 0.7 mph 2 mph 100% 0.00 in 0 W/m2
06:04 42.9 °F 42.9 °F 29.93 in NE 0.1 mph 1 mph 100% 0.00 in 0 W/m2
06:09 42.8 °F 42.8 °F 29.93 in Calm     100% 0.00 in 0 W/m2
06:14 42.8 °F 42.8 °F 29.93 in Calm     100% 0.00 in 0 W/m2
06:19 42.7 °F 42.7 °F 29.93 in Calm     100% 0.00 in 0 W/m2
06:24 42.8 °F 42.8 °F 29.93 in Calm     100% 0.00 in 0 W/m2
06:29 42.8 °F 42.8 °F 29.94 in Calm     100% 0.00 in 0 W/m2
06:34 42.8 °F 42.8 °F 29.94 in Calm     100% 0.00 in 0 W/m2
06:39 42.8 °F 42.8 °F 29.94 in Calm     100% 0.00 in 0 W/m2
06:44 42.8 °F 42.8 °F 29.94 in Calm     100% 0.00 in 0 W/m2
06:49 42.8 °F 42.8 °F 29.93 in Calm     100% 0.00 in 0 W/m2
06:54 42.8 °F 42.8 °F 29.93 in Calm     100% 0.00 in 0 W/m2
06:59 42.9 °F 42.9 °F 29.93 in Calm     100% 0.00 in 0 W/m2
07:04 42.9 °F 42.9 °F 29.93 in Calm     100% 0.00 in 0 W/m2
07:09 43 °F 43 °F 29.93 in NE 0.9 mph 2 mph 100% 0.00 in 5 W/m2
07:14 43.1 °F 43.1 °F 29.94 in NE 0.3 mph 2 mph 100% 0.00 in 7 W/m2
07:19 43.1 °F 43.1 °F 29.94 in NE 0.4 mph 2 mph 100% 0.00 in 5 W/m2
07:24 43.1 °F 43.1 °F 29.94 in NE 0.9 mph 2 mph 100% 0.00 in 7 W/m2
07:29 43.1 °F 43.1 °F 29.94 in NE 0.8 mph 3 mph 100% 0.00 in 12 W/m2
07:34 43.1 °F 43.1 °F 29.94 in NE 0.8 mph 3 mph 100% 0.00 in 12 W/m2
07:39 43.2 °F 43.2 °F 29.94 in ENE 1.1 mph 3 mph 100% 0.00 in 18 W/m2
07:44 43.2 °F 43.2 °F 29.94 in ENE 1.2 mph 3 mph 100% 0.00 in 33 W/m2
07:49 43.2 °F 43.2 °F 29.93 in ENE 0.7 mph 2 mph 100% 0.00 in 37 W/m2
07:54 43.2 °F 43.2 °F 29.93 in ENE 0.5 mph 1 mph 100% 0.00 in 39 W/m2
07:59 43.3 °F 43.3 °F 29.94 in ENE 0.6 mph 1 mph 100% 0.00 in 30 W/m2
08:04 43.3 °F 43.3 °F 29.94 in ENE 0.1 mph 1 mph 100% 0.00 in 19 W/m2
08:09 43.5 °F 43.5 °F 29.94 in ENE 0.5 mph 2 mph 100% 0.00 in 16 W/m2
08:14 43.5 °F 43.5 °F 29.95 in Calm   1 mph 100% 0.00 in 18 W/m2
08:19 43.5 °F 43.5 °F 29.95 in Calm   1 mph 100% 0.00 in 25 W/m2
08:24 43.5 °F 43.5 °F 29.95 in Calm     100% 0.00 in 25 W/m2
08:29 43.6 °F 43.6 °F 29.95 in Calm     100% 0.00 in 39 W/m2
08:34 43.8 °F 43.8 °F 29.95 in Calm     100% 0.00 in 56 W/m2
08:39 44 °F 44 °F 29.95 in ENE 0.1 mph 1 mph 100% 0.00 in 60 W/m2
08:44 44.2 °F 44.2 °F 29.95 in ENE 0.2 mph 1 mph 100% 0.00 in 49 W/m2
08:49 44.4 °F 44.4 °F 29.95 in Calm   1 mph 100% 0.00 in 49 W/m2
08:54 44.6 °F 44.6 °F 29.95 in Calm   1 mph 100% 0.00 in 39 W/m2
08:59 44.7 °F 44.7 °F 29.95 in ENE 0.3 mph 1 mph 100% 0.00 in 60 W/m2
09:04 44.9 °F 44.9 °F 29.95 in ENE 0.2 mph 2 mph 100% 0.00 in 70 W/m2
09:09 45.1 °F 45.1 °F 29.95 in ENE 0.1 mph 1 mph 100% 0.00 in 70 W/m2
09:14 45.4 °F 45.4 °F 29.95 in ENE 0.4 mph 2 mph 100% 0.00 in 84 W/m2
09:19 45.7 °F 45.7 °F 29.95 in ENE 0.8 mph 2 mph 100% 0.00 in 132 W/m2
09:24 45.9 °F 45.9 °F 29.95 in ENE 0.1 mph 1 mph 100% 0.00 in 104 W/m2
09:29 46.1 °F 46.1 °F 29.95 in ENE 0.3 mph 1 mph 100% 0.00 in 93 W/m2
09:34 46.3 °F 46.3 °F 29.94 in ENE 0.8 mph 2 mph 100% 0.00 in 90 W/m2
09:39 46.6 °F 46.6 °F 29.94 in ENE 0.9 mph 2 mph 100% 0.00 in 83 W/m2
09:44 46.7 °F 46.7 °F 29.94 in ENE 1.8 mph 2 mph 100% 0.00 in 60 W/m2
09:49 46.9 °F 46.9 °F 29.94 in NE 0.7 mph 2 mph 100% 0.00 in 155 W/m2
09:54 47.2 °F 47.2 °F 29.94 in ENE 1.1 mph 2 mph 100% 0.00 in 179 W/m2
09:59 47.6 °F 47.6 °F 29.94 in ENE 1.1 mph 2 mph 100% 0.00 in 304 W/m2
10:04 48.2 °F 48.2 °F 29.93 in ENE 1.3 mph 2 mph 100% 0.00 in 230 W/m2
10:09 48.6 °F 48.6 °F 29.93 in ENE 0.7 mph 2 mph 100% 0.00 in 315 W/m2
10:14 49.1 °F 49.1 °F 29.93 in ENE 1 mph 2 mph 100% 0.00 in 301 W/m2
10:19 49.6 °F 49.6 °F 29.92 in ENE 0.3 mph 2 mph 100% 0.00 in 385 W/m2
10:24 50.2 °F 50.2 °F 29.92 in East 0.2 mph 2 mph 100% 0.00 in 405 W/m2
10:29 50.8 °F 50.8 °F 29.92 in SSW 0.6 mph 2 mph 100% 0.00 in 389 W/m2
10:34 51.5 °F 51.5 °F 29.92 in SSW 1.9 mph 4 mph 100% 0.00 in 493 W/m2
10:39 52.1 °F 52 °F 29.92 in SSW 1.6 mph 5 mph 99.4% 0.00 in 493 W/m2
10:44 52.9 °F 52.2 °F 29.92 in SSW 1.4 mph 5 mph 97.5% 0.00 in 584 W/m2
10:49 53.8 °F 52.5 °F 29.91 in SSW 1.9 mph 4 mph 95.5% 0.00 in 584 W/m2
10:54 54.3 °F 52.6 °F 29.91 in SSW 1.1 mph 3 mph 93.9% 0.00 in 320 W/m2
10:59 54.8 °F 52.6 °F 29.91 in SSW 1.2 mph 3 mph 92.3% 0.00 in 262 W/m2
11:04 55 °F 52.3 °F 29.91 in SW 1.8 mph 5 mph 90.4% 0.00 in 255 W/m2
11:09 55.4 °F 52.5 °F 29.91 in SW 0.9 mph 3 mph 89.8% 0.00 in 255 W/m2
11:14 55.8 °F 52.3 °F 29.92 in SW 2.4 mph 5 mph 87.8% 0.00 in 179 W/m2
11:19 56 °F 52.1 °F 29.92 in SW 0.8 mph 5 mph 86.8% 0.00 in 100 W/m2
11:24 56.2 °F 52.2 °F 29.92 in SW 1.5 mph 5 mph 86.3% 0.00 in 72 W/m2
11:29 56.2 °F 52.3 °F 29.92 in SW 0.2 mph 5 mph 86.6% 0.00 in 74 W/m2
11:34 56.4 °F 52.6 °F 29.92 in SW 0.2 mph 2 mph 87% 0.00 in 95 W/m2
11:39 56.5 °F 52.7 °F 29.92 in SW 0.6 mph 3 mph 87% 0.00 in 99 W/m2
11:44 56.6 °F 52.9 °F 29.92 in SSW 0.1 mph 1 mph 87.6% 0.00 in 77 W/m2
11:49 56.7 °F 53.2 °F 29.92 in Calm   1 mph 88% 0.00 in 63 W/m2
11:54 56.7 °F 53.4 °F 29.92 in Calm     88.6% 0.00 in 90 W/m2
11:59 56.7 °F 53.5 °F 29.92 in Calm     89% 0.00 in 95 W/m2
12:04 56.9 °F 54.1 °F 29.92 in ENE 0.5 mph 2 mph 90.3% 0.01 in 90 W/m2
12:09 57 °F 54.6 °F 29.92 in ENE 1.2 mph 2 mph 91.6% 0.01 in 113 W/m2
12:14 56.9 °F 54.6 °F 29.92 in NE 0.4 mph 2 mph 92% 0.01 in 132 W/m2
12:19 56.9 °F 54.9 °F 29.89 in NNE 0.2 mph 1 mph 92.9% 0.01 in 139 W/m2
12:24 56.9 °F 55.1 °F 29.89 in Calm   1 mph 93.8% 0.01 in 127 W/m2
12:29 57 °F 55.6 °F 29.89 in Calm     95% 0.01 in 137 W/m2
12:34 57.1 °F 56 °F 29.88 in Calm     96% 0.01 in 134 W/m2
12:39 57.3 °F 56.3 °F 29.88 in Calm   1 mph 96.4% 0.01 in 155 W/m2
12:44 57.5 °F 56.7 °F 29.88 in NW 0.4 mph 2 mph 97% 0.01 in 155 W/m2
12:49 57.6 °F 56.8 °F 29.88 in Calm   1 mph 97% 0.01 in 102 W/m2
12:54 57.7 °F 56.9 °F 29.88 in SW 0.1 mph 1 mph 97% 0.01 in 70 W/m2
12:59 57.8 °F 57 °F 29.88 in SW 0.4 mph 2 mph 97% 0.01 in 76 W/m2
13:04 57.6 °F 56.8 °F 29.88 in NW 0.1 mph 2 mph 97% 0.01 in 76 W/m2
13:09 57.6 °F 56.8 °F 29.88 in NW 0.1 mph 1 mph 97% 0.01 in 77 W/m2
13:14 57.6 °F 56.8 °F 29.88 in Calm     97% 0.01 in 56 W/m2
13:19 57.6 °F 56.8 °F 29.88 in Calm   1 mph 97.2% 0.01 in 53 W/m2
13:24 57.6 °F 57 °F 29.88 in Calm   1 mph 98% 0.02 in 44 W/m2
13:29 57.6 °F 57 °F 29.88 in Calm     98% 0.03 in 35 W/m2
13:34 57.6 °F 57 °F 29.88 in Calm     98% 0.03 in 44 W/m2
13:39 57.6 °F 57.1 °F 29.88 in SW 1.1 mph 4 mph 98.4% 0.03 in 44 W/m2
13:44 57.5 °F 57.2 °F 29.90 in Calm   2 mph 99% 0.04 in 37 W/m2
13:49 57.3 °F 57 °F 29.90 in SW 0.4 mph 2 mph 99% 0.04 in 25 W/m2
13:54 57.2 °F 57 °F 29.90 in South 0.1 mph 2 mph 99% 0.05 in 76 W/m2
13:59 57.2 °F 56.9 °F 29.90 in South 0.6 mph 2 mph 99% 0.06 in 97 W/m2
14:04 57 °F 56.8 °F 29.89 in SW 0.3 mph 2 mph 99.2% 0.06 in 99 W/m2
14:09 57 °F 57 °F 29.89 in Calm     100% 0.06 in 84 W/m2
14:14 57 °F 57 °F 29.90 in Calm     100% 0.07 in 35 W/m2
14:19 57 °F 57 °F 29.90 in Calm   1 mph 100% 0.07 in 25 W/m2
14:24 57 °F 57 °F 29.90 in Calm   1 mph 100% 0.07 in 55 W/m2
14:29 56.9 °F 56.9 °F 29.90 in Calm     100% 0.07 in 56 W/m2
14:34 57 °F 57 °F 29.90 in Calm     100% 0.07 in 35 W/m2
14:39 57 °F 57 °F 29.90 in Calm     100% 0.05 in 48 W/m2
14:44 57 °F 57 °F 29.90 in SW 0.1 mph 1 mph 100% 0.05 in 55 W/m2
14:49 57 °F 57 °F 29.88 in Calm   1 mph 100% 0.05 in 77 W/m2
14:54 57.2 °F 57.2 °F 29.88 in Calm     100% 0.05 in 93 W/m2
14:59 57.4 °F 57.4 °F 29.88 in Calm     100% 0.04 in 118 W/m2
15:04 57.5 °F 57.5 °F 29.86 in South 0.6 mph 1 mph 100% 0.04 in 102 W/m2
15:09 57.6 °F 57.6 °F 29.86 in Calm   1 mph 100% 0.02 in 125 W/m2
15:14 57.7 °F 57.7 °F 29.86 in East 0.6 mph 2 mph 100% 0.02 in 113 W/m2
15:19 58 °F 58 °F 29.85 in ENE 0.7 mph 2 mph 100% 0.02 in 113 W/m2
15:24 58.1 °F 58.1 °F 29.85 in Calm   1 mph 100% 0.02 in 95 W/m2
15:29 57.9 °F 57.9 °F 29.85 in East 0.7 mph 2 mph 100% 0.01 in 100 W/m2
15:34 57.6 °F 57.6 °F 29.85 in Calm   1 mph 100% 0.01 in 104 W/m2
15:39 57.7 °F 57.7 °F 29.85 in Calm     100% 0.01 in 104 W/m2
15:44 57.9 °F 57.9 °F 29.85 in Calm   1 mph 100% 0.01 in 106 W/m2
15:49 58 °F 58 °F 29.83 in East 0.2 mph 1 mph 100% 0.01 in 106 W/m2
15:54 58.1 °F 58.1 °F 29.83 in ENE 0.8 mph 2 mph 100% 0.01 in 104 W/m2
15:59 58.3 °F 58.3 °F 29.83 in ENE 0.1 mph 1 mph 100% 0.01 in 83 W/m2
16:04 58.4 °F 58.4 °F 29.82 in ENE 0.8 mph 2 mph 100% 0.01 in 65 W/m2
16:09 58.3 °F 58.3 °F 29.82 in ENE 0.1 mph 1 mph 100% 0.01 in 60 W/m2
16:14 58.3 °F 58.3 °F 29.83 in Calm     100% 0.01 in 60 W/m2
16:19 58.3 °F 58.3 °F 29.83 in Calm     100% 0.01 in 58 W/m2
16:24 58.4 °F 58.4 °F 29.83 in Calm     100% 0.01 in 49 W/m2
16:29 58.5 °F 58.5 °F 29.83 in Calm   1 mph 100% 0.01 in 42 W/m2
16:34 58.6 °F 58.6 °F 29.83 in SSE 0.1 mph 1 mph 100% 0.01 in 42 W/m2
16:39 58.6 °F 58.6 °F 29.83 in SSE 0.1 mph 1 mph 100% 0.01 in 42 W/m2
16:44 58.5 °F 58.5 °F 29.83 in SSE 0.1 mph 1 mph 100% 0.01 in 44 W/m2
16:49 58.4 °F 58.4 °F 29.83 in SSE 0.1 mph 1 mph 100% 0.00 in 53 W/m2
16:54 58.4 °F 58.4 °F 29.83 in Calm     100% 0.00 in 48 W/m2
16:59 58.4 °F 58.4 °F 29.83 in Calm     100% 0.00 in 44 W/m2
17:04 58.4 °F 58.4 °F 29.83 in Calm     100% 0.00 in 40 W/m2
17:09 58.4 °F 58.4 °F 29.83 in Calm     100% 0.00 in 18 W/m2
17:14 58.4 °F 58.4 °F 29.83 in Calm     100% 0.00 in 11 W/m2
17:19 58.3 °F 58.3 °F 29.82 in Calm     100% 0.00 in 7 W/m2
17:24 58.3 °F 58.3 °F 29.82 in Calm     100% 0.00 in 5 W/m2
17:29 58.3 °F 58.3 °F 29.82 in Calm     100% 0.00 in 5 W/m2
17:34 58.2 °F 58.2 °F 29.82 in Calm     100% 0.00 in 5 W/m2
17:39 58.1 °F 58.1 °F 29.82 in Calm     100% 0.00 in 5 W/m2
17:44 58 °F 58 °F 29.82 in Calm     100% 0.00 in 5 W/m2
17:49 58 °F 58 °F 29.82 in Calm     100% 0.00 in 0 W/m2
17:54 57.9 °F 57.9 °F 29.82 in Calm     100% 0.00 in 0 W/m2
17:59 57.8 °F 57.8 °F 29.82 in Calm     100% 0.00 in 0 W/m2
18:04 57.6 °F 57.6 °F 29.82 in Calm     100% 0.00 in 0 W/m2
18:09 57.5 °F 57.5 °F 29.82 in Calm     100% 0.00 in 0 W/m2
18:14 57.2 °F 57.2 °F 29.82 in Calm     100% 0.00 in 0 W/m2
18:19 56.9 °F 56.9 °F 29.82 in Calm     100% 0.00 in 0 W/m2
18:24 56.7 °F 56.7 °F 29.82 in Calm     100% 0.00 in 0 W/m2
18:29 56.4 °F 56.4 °F 29.82 in Calm   1 mph 100% 0.00 in 0 W/m2
18:34 56 °F 56 °F 29.81 in Calm     100% 0.00 in 0 W/m2
18:39 55.9 °F 55.9 °F 29.81 in Calm     100% 0.00 in 0 W/m2
18:44 55.8 °F 55.8 °F 29.81 in Calm     100% 0.00 in 0 W/m2
18:49 55.6 °F 55.6 °F 29.81 in Calm     100% 0.00 in 0 W/m2
18:54 55.5 °F 55.5 °F 29.81 in Calm     100% 0.00 in 0 W/m2
18:59 55.4 °F 55.4 °F 29.81 in Calm     100% 0.00 in 0 W/m2
19:04 55.4 °F 55.4 °F 29.81 in Calm     100% 0.00 in 0 W/m2
19:09 55.4 °F 55.4 °F 29.81 in Calm     100% 0.00 in 0 W/m2
19:14 55.3 °F 55.3 °F 29.81 in Calm     100% 0.00 in 0 W/m2
19:19 55.3 °F 55.3 °F 29.81 in Calm     100% 0.00 in 0 W/m2
19:24 55.3 °F 55.3 °F 29.81 in Calm     100% 0.00 in 0 W/m2
19:29 55.3 °F 55.3 °F 29.81 in Calm     100% 0.00 in 0 W/m2
19:34 55.3 °F 55.3 °F 29.81 in Calm     100% 0.00 in 0 W/m2
19:39 55.3 °F 55.3 °F 29.81 in Calm     100% 0.00 in 0 W/m2
19:44 55.3 °F 55.3 °F 29.81 in Calm     100% 0.00 in 0 W/m2
19:49 55.3 °F 55.3 °F 29.81 in Calm     100% 0.00 in 0 W/m2
19:54 55.1 °F 55.1 °F 29.81 in Calm     100% 0.00 in 0 W/m2
19:59 55.2 °F 55.2 °F 29.81 in Calm     100% 0.00 in 0 W/m2
20:04 55.3 °F 55.3 °F 29.80 in Calm     100% 0.00 in 0 W/m2
20:09 55.3 °F 55.3 °F 29.80 in Calm     100% 0.00 in 0 W/m2
20:14 55.4 °F 55.4 °F 29.80 in Calm     100% 0.00 in 0 W/m2
20:19 55.4 °F 55.4 °F 29.79 in Calm     100% 0.00 in 0 W/m2
20:24 55.4 °F 55.4 °F 29.79 in Calm     100% 0.00 in 0 W/m2
20:29 55.3 °F 55.3 °F 29.79 in ESE 0.1 mph 1 mph 100% 0.00 in 0 W/m2
20:34 55.3 °F 55.3 °F 29.78 in East 0.3 mph 2 mph 100% 0.00 in 0 W/m2
20:39 55.2 °F 55.2 °F 29.78 in East 0.5 mph 2 mph 100% 0.00 in 0 W/m2
20:40 55.1 °F 55.1 °F 29.78 in ENE 0.4 mph 2 mph 100% 0.00 in 0 W/m2
Lisbon, New Hampshire, USA
Compliments of Weather Underground - 3.75 mb